Time;durP1;ratioP1;P1;durP2;ratioP2;P2;SDS_P1;SDS_P2;PMS_P1;PMS_P2;Temp;Humidity;BMP_temperature;BMP_pressure;BME280_temperature;BME280_humidity;BME280_pressure;Samples;Min_cycle;Max_cycle;Signal;HPM_P1;HPM_P2
2023/09/17 00:01:14;;;;;;;13.23;6.43;;;;;;;14.85;81.33;100597.28;4193152;28;20518;-72
2023/09/17 00:03:41;;;;;;;11.10;7.20;;;;;;;14.85;81.29;100594.56;4182016;28;20304;-70
2023/09/17 00:06:08;;;;;;;11.23;6.87;;;;;;;14.86;81.12;100594.38;4188026;28;20237;-71
2023/09/17 00:08:35;;;;;;;12.73;5.83;;;;;;;14.82;81.37;100583.97;4192914;28;20340;-69
2023/09/17 00:11:03;;;;;;;11.87;6.50;;;;;;;14.82;81.43;100584.84;4187993;28;20232;-69
2023/09/17 00:13:30;;;;;;;13.60;6.70;;;;;;;14.78;81.55;100579.91;4182905;28;20643;-67
2023/09/17 00:15:58;;;;;;;12.67;6.83;;;;;;;14.72;81.60;100568.69;4185447;28;20550;-67
2023/09/17 00:18:24;;;;;;;10.63;6.50;;;;;;;14.69;81.85;100574.47;4173758;28;20298;-68
2023/09/17 00:20:51;;;;;;;11.70;6.93;;;;;;;14.71;81.99;100563.38;4189307;28;26715;-71
2023/09/17 00:23:18;;;;;;;13.80;7.20;;;;;;;14.67;82.13;100564.75;4193868;28;20229;-69
2023/09/17 00:25:44;;;;;;;12.97;7.40;;;;;;;14.67;81.97;100556.59;4193963;28;20237;-70
2023/09/17 00:28:11;;;;;;;12.57;7.37;;;;;;;14.61;82.11;100549.91;4189879;28;20335;-68
2023/09/17 00:30:37;;;;;;;11.27;6.70;;;;;;;14.58;82.34;100555.69;4193430;28;20249;-67
2023/09/17 00:33:04;;;;;;;13.67;7.40;;;;;;;14.56;82.37;100550.44;4193738;28;20589;-69
2023/09/17 00:35:31;;;;;;;11.80;7.07;;;;;;;14.56;82.40;100546.88;4189643;28;21163;-67
2023/09/17 00:37:57;;;;;;;15.03;7.27;;;;;;;14.52;82.58;100540.91;4191721;28;20237;-69
2023/09/17 00:40:28;;;;;;;12.20;6.70;;;;;;;14.52;82.65;100545.50;4198634;28;20237;-68
2023/09/17 00:42:55;;;;;;;12.40;6.90;;;;;;;14.50;82.65;100540.22;4185992;28;20267;-68
2023/09/17 00:45:22;;;;;;;15.37;7.47;;;;;;;14.49;82.67;100535.78;4188555;28;21937;-68
2023/09/17 00:47:49;;;;;;;11.73;7.27;;;;;;;14.49;82.57;100534.94;4187571;28;20743;-67
2023/09/17 00:50:17;;;;;;;11.33;6.90;;;;;;;14.45;82.93;100536.28;4189507;28;20359;-70
2023/09/17 00:52:44;;;;;;;14.17;6.83;;;;;;;14.45;82.83;100528.13;4188496;28;20309;-70
2023/09/17 00:55:10;;;;;;;11.57;7.40;;;;;;;14.46;82.54;100540.72;4186027;28;20285;-70
2023/09/17 00:57:39;;;;;;;14.83;7.87;;;;;;;14.39;83.00;100540.53;4186550;28;21737;-68
2023/09/17 01:00:09;;;;;;;13.80;7.37;;;;;;;14.39;83.18;100538.69;4193664;28;20272;-71
2023/09/17 01:02:37;;;;;;;13.03;7.70;;;;;;;14.37;83.12;100534.44;4196557;28;20244;-68
2023/09/17 01:05:04;;;;;;;16.57;6.67;;;;;;;14.44;82.75;100530.00;4205990;28;20308;-68
2023/09/17 01:07:32;;;;;;;17.33;7.63;;;;;;;14.36;83.29;100527.28;4188807;28;22327;-69
2023/09/17 01:09:59;;;;;;;14.20;7.33;;;;;;;14.26;83.48;100517.41;4199032;28;26307;-70
2023/09/17 01:12:35;;;;;;;12.23;6.73;;;;;;;14.26;83.70;100525.56;4186171;28;21280;-68
2023/09/17 01:15:06;;;;;;;13.33;7.50;;;;;;;14.27;83.68;100526.44;4188815;28;20341;-68
2023/09/17 01:17:34;;;;;;;13.07;6.87;;;;;;;14.22;83.81;100515.19;4197229;28;20229;-68
2023/09/17 01:20:07;;;;;;;13.70;7.50;;;;;;;14.24;83.98;100526.78;4191648;28;21662;-67
2023/09/17 01:22:43;;;;;;;13.87;7.30;;;;;;;14.19;84.04;100512.81;4184824;28;20254;-69
2023/09/17 01:25:28;;;;;;;13.33;7.70;;;;;;;14.14;84.27;100515.19;4193801;28;20433;-69
2023/09/17 01:27:55;;;;;;;14.47;7.70;;;;;;;14.15;84.37;100506.00;4192413;28;25307;-68
2023/09/17 01:30:22;;;;;;;12.63;7.33;;;;;;;14.10;84.38;100510.09;4198875;28;22655;-70
2023/09/17 01:32:49;;;;;;;13.53;7.50;;;;;;;14.09;84.64;100496.63;4195730;28;20238;-70
2023/09/17 01:35:17;;;;;;;12.90;7.43;;;;;;;14.10;84.35;100503.78;4198812;28;20237;-70
2023/09/17 01:37:56;;;;;;;17.83;8.10;;;;;;;14.05;84.85;100507.00;4187670;28;22292;-69
2023/09/17 01:40:24;;;;;;;11.90;7.60;;;;;;;14.02;85.03;100507.34;4185784;28;20236;-68
2023/09/17 01:42:52;;;;;;;15.47;7.80;;;;;;;14.05;85.01;100498.00;4183081;28;20385;-67
2023/09/17 01:45:20;;;;;;;12.60;7.07;;;;;;;14.04;84.98;100496.28;4198219;28;21766;-68
2023/09/17 01:47:48;;;;;;;14.60;7.67;;;;;;;14.02;85.16;100488.31;4189218;28;20233;-68
2023/09/17 01:50:19;;;;;;;19.43;8.33;;;;;;;14.06;85.00;100486.09;4186899;28;25265;-68
2023/09/17 01:52:46;;;;;;;17.43;7.23;;;;;;;13.98;85.13;100484.19;4196696;28;26270;-69
2023/09/17 01:55:13;;;;;;;13.23;7.60;;;;;;;13.99;85.28;100485.91;4185405;28;21319;-69
2023/09/17 01:57:41;;;;;;;14.87;8.00;;;;;;;13.98;85.71;100491.53;4194471;28;20238;-70
2023/09/17 02:00:20;;;;;;;13.70;7.80;;;;;;;14.02;85.29;100488.31;4185793;28;20903;-69
2023/09/17 02:02:49;;;;;;;12.47;7.50;;;;;;;14.17;84.50;100490.34;4184502;28;20228;-68
2023/09/17 02:05:17;;;;;;;13.53;8.00;;;;;;;14.02;85.11;100488.31;4197192;28;20925;-68
2023/09/17 02:07:44;;;;;;;14.80;8.17;;;;;;;13.99;85.18;100480.47;4203078;28;20233;-69
2023/09/17 02:10:11;;;;;;;14.80;8.20;;;;;;;13.98;85.53;100486.91;4201713;28;20398;-68
2023/09/17 02:12:40;;;;;;;13.43;7.97;;;;;;;14.02;85.22;100484.72;4198091;28;21226;-68
2023/09/17 02:15:09;;;;;;;18.67;8.70;;;;;;;13.96;85.36;100475.38;4202047;28;22109;-67
2023/09/17 02:17:36;;;;;;;15.73;8.17;;;;;;;13.99;85.31;100485.91;4186032;28;22443;-68
2023/09/17 02:20:05;;;;;;;17.43;8.83;;;;;;;13.99;85.43;100490.50;4193075;28;20249;-68
2023/09/17 02:22:32;;;;;;;13.97;8.53;;;;;;;14.01;85.28;100485.75;4190034;28;20237;-67
2023/09/17 02:24:58;;;;;;;17.03;8.03;;;;;;;13.97;85.74;100490.69;4190182;28;21762;-69
2023/09/17 02:27:25;;;;;;;16.03;8.23;;;;;;;14.00;85.41;100479.44;4195401;28;20235;-70
2023/09/17 02:29:52;;;;;;;17.10;8.57;;;;;;;13.90;85.69;100487.78;4191073;28;20229;-70
2023/09/17 02:32:20;;;;;;;13.77;8.13;;;;;;;13.95;85.75;100492.72;4185018;28;20236;-70
2023/09/17 02:34:46;;;;;;;18.00;8.33;;;;;;;14.05;85.53;100489.84;4203127;28;20650;-67
2023/09/17 02:37:13;;;;;;;14.43;8.20;;;;;;;14.03;85.17;100489.16;4189634;28;23490;-67
2023/09/17 02:39:40;;;;;;;15.60;8.40;;;;;;;13.92;85.75;100493.03;4193299;28;20411;-68
2023/09/17 02:42:07;;;;;;;17.00;8.60;;;;;;;13.83;86.22;100489.47;4197991;28;20300;-70
2023/09/17 02:44:33;;;;;;;15.17;8.97;;;;;;;13.86;86.07;100486.41;4188704;28;20237;-68
2023/09/17 02:47:00;;;;;;;14.37;8.87;;;;;;;13.85;86.23;100489.28;4184166;28;20320;-67
2023/09/17 02:49:27;;;;;;;13.97;8.23;;;;;;;13.82;86.45;100495.09;4174282;28;20258;-69
2023/09/17 02:51:53;;;;;;;12.47;7.97;;;;;;;13.81;86.64;100496.09;4189590;28;20232;-71
2023/09/17 02:54:20;;;;;;;14.93;8.73;;;;;;;13.74;87.00;100493.19;4190841;28;20851;-68
2023/09/17 02:56:46;;;;;;;14.60;8.20;;;;;;;13.72;87.05;100489.78;4186520;28;20344;-69
2023/09/17 02:59:13;;;;;;;16.23;8.37;;;;;;;13.75;87.23;100500.34;4193392;28;21277;-68
2023/09/17 03:01:40;;;;;;;15.23;8.53;;;;;;;13.82;86.92;100500.53;4191726;28;21597;-70
2023/09/17 03:04:07;;;;;;;16.13;8.27;;;;;;;13.81;86.64;100499.66;4189399;28;20234;-70
2023/09/17 03:06:33;;;;;;;16.43;8.17;;;;;;;13.73;87.14;100499.63;4189421;28;20304;-69
2023/09/17 03:09:01;;;;;;;15.00;8.40;;;;;;;13.73;87.12;100500.50;4197119;28;25532;-68
2023/09/17 03:11:28;;;;;;;15.87;8.90;;;;;;;13.72;87.50;100504.25;4194252;28;21592;-70
2023/09/17 03:13:55;;;;;;;17.00;7.50;;;;;;;13.81;87.02;100509.72;4185311;28;22213;-69
2023/09/17 03:16:22;;;;;;;14.33;8.13;;;;;;;13.79;87.30;100502.56;4193017;28;20855;-68
2023/09/17 03:18:49;;;;;;;17.77;9.00;;;;;;;13.71;87.18;100497.09;4193786;28;20418;-70
2023/09/17 03:21:16;;;;;;;19.30;8.90;;;;;;;13.70;87.44;100505.44;4211883;28;20299;-69
2023/09/17 03:23:43;;;;;;;15.43;9.10;;;;;;;13.71;87.62;100505.25;4190780;28;20236;-68
2023/09/17 03:26:10;;;;;;;14.87;8.27;;;;;;;13.75;87.06;100503.91;4197435;28;20848;-70
2023/09/17 03:28:37;;;;;;;15.33;9.30;;;;;;;13.75;87.07;100494.91;4187543;28;21011;-69
2023/09/17 03:31:04;;;;;;;16.23;8.77;;;;;;;13.67;87.02;100490.28;4197020;28;21281;-68
2023/09/17 03:33:30;;;;;;;19.87;9.07;;;;;;;13.69;87.72;100501.84;4206941;28;21078;-67
2023/09/17 03:36:00;;;;;;;14.03;8.40;;;;;;;13.72;87.86;100498.81;4200848;28;20298;-69
2023/09/17 03:38:26;;;;;;;18.30;9.27;;;;;;;13.75;87.26;100497.63;4208839;28;20476;-68
2023/09/17 03:40:53;;;;;;;16.07;9.13;;;;;;;13.63;87.87;100502.50;4200408;28;21629;-70
2023/09/17 03:43:20;;;;;;;19.10;9.37;;;;;;;13.67;88.42;100508.47;4183109;28;20233;-68
2023/09/17 03:45:46;;;;;;;17.23;9.23;;;;;;;13.70;87.57;100509.00;4184336;28;20233;-70
2023/09/17 03:48:13;;;;;;;16.63;9.73;;;;;;;13.70;87.54;100500.00;4197864;28;20246;-70
2023/09/17 03:50:42;;;;;;;17.20;9.03;;;;;;;13.58;88.08;100504.88;4195009;28;21170;-69
2023/09/17 03:53:09;;;;;;;21.67;9.90;;;;;;;13.72;87.15;100504.25;4199641;28;20640;-67
2023/09/17 03:55:36;;;;;;;14.87;8.87;;;;;;;13.61;88.01;100499.09;4203719;28;20582;-69
2023/09/17 03:58:03;;;;;;;16.83;9.67;;;;;;;13.50;88.71;100493.97;4196102;28;22639;-68
2023/09/17 04:00:30;;;;;;;17.27;10.00;;;;;;;13.47;88.94;100495.16;4187050;28;20288;-67
2023/09/17 04:02:57;;;;;;;16.53;9.70;;;;;;;13.42;88.91;100487.50;4195621;28;20237;-69
2023/09/17 04:05:24;;;;;;;17.13;10.30;;;;;;;13.42;88.92;100489.34;4202451;28;20238;-67
2023/09/17 04:07:51;;;;;;;21.83;9.57;;;;;;;13.37;89.52;100500.69;4185233;28;20489;-68
2023/09/17 04:10:17;;;;;;;21.50;10.40;;;;;;;13.40;89.41;100481.38;4197609;28;23558;-69
2023/09/17 04:12:45;;;;;;;16.43;10.00;;;;;;;13.38;89.43;100482.53;4190718;28;20244;-69
2023/09/17 04:15:16;;;;;;;17.07;10.10;;;;;;;13.35;89.58;100483.72;4191550;28;22242;-68
2023/09/17 04:17:48;;;;;;;18.33;10.60;;;;;;;13.34;89.57;100486.56;4183205;28;20289;-69
2023/09/17 04:20:18;;;;;;;20.13;10.60;;;;;;;13.33;89.62;100474.84;4197199;28;20234;-67
2023/09/17 04:22:48;;;;;;;20.67;10.23;;;;;;;13.35;89.58;100471.97;4194843;28;20237;-70
2023/09/17 04:25:18;;;;;;;23.67;11.03;;;;;;;13.29;90.02;100474.34;4198801;28;20241;-69
2023/09/17 04:27:46;;;;;;;20.80;10.67;;;;;;;13.24;90.17;100478.56;4178605;28;20253;-68
2023/09/17 04:30:15;;;;;;;18.77;10.00;;;;;;;13.34;89.72;100473.84;4191315;28;20248;-68
2023/09/17 04:32:44;;;;;;;21.43;10.83;;;;;;;13.29;89.94;100479.78;4189744;28;21062;-70
2023/09/17 04:35:15;;;;;;;19.53;10.70;;;;;;;13.34;90.11;100475.69;4199777;28;20240;-71
2023/09/17 04:37:44;;;;;;;20.00;10.87;;;;;;;13.31;89.94;100475.03;4186449;28;20229;-69
2023/09/17 04:40:11;;;;;;;21.30;10.43;;;;;;;13.36;89.92;100476.38;4185945;28;20233;-68
2023/09/17 04:42:48;;;;;;;22.37;11.07;;;;;;;13.36;89.73;100473.66;4206537;28;20671;-69
2023/09/17 04:45:37;;;;;;;25.60;11.07;;;;;;;13.39;89.59;100467.94;4202117;28;20235;-68
2023/09/17 04:48:04;;;;;;;18.27;10.60;;;;;;;13.40;90.09;100478.66;4208548;28;20471;-67
2023/09/17 04:50:33;;;;;;;18.87;10.77;;;;;;;13.41;89.37;100483.06;4200779;28;21921;-69
2023/09/17 04:53:00;;;;;;;19.70;10.90;;;;;;;13.45;89.67;100483.59;4203401;28;20245;-66
2023/09/17 04:55:27;;;;;;;21.13;11.03;;;;;;;13.65;88.77;100495.06;4195583;28;21238;-70
2023/09/17 04:57:54;;;;;;;18.63;11.23;;;;;;;13.53;89.04;100485.47;4190212;28;20279;-70
2023/09/17 05:00:21;;;;;;;20.07;10.83;;;;;;;13.70;88.50;100486.41;4206453;28;20238;-68
2023/09/17 05:02:49;;;;;;;18.93;10.43;;;;;;;13.85;87.74;100492.88;4195549;28;20285;-71
2023/09/17 05:05:20;;;;;;;22.00;11.17;;;;;;;13.83;87.91;100497.63;4193581;28;20334;-67
2023/09/17 05:07:51;;;;;;;20.40;11.33;;;;;;;13.72;88.23;100500.66;4192615;28;22794;-70
2023/09/17 05:10:18;;;;;;;19.03;11.27;;;;;;;13.71;88.38;100510.69;4231027;28;25657;-67
2023/09/17 05:12:45;;;;;;;23.63;10.50;;;;;;;13.75;88.31;100503.06;4190407;28;20230;-67
2023/09/17 05:15:11;;;;;;;19.03;10.53;;;;;;;13.82;87.92;100512.25;4188322;28;21801;-68
2023/09/17 05:17:38;;;;;;;18.63;10.37;;;;;;;13.74;88.33;100507.66;4192902;28;20313;-65
2023/09/17 05:20:06;;;;;;;21.10;11.37;;;;;;;13.83;88.21;100505.78;4183238;28;20232;-68
2023/09/17 05:22:34;;;;;;;19.17;11.17;;;;;;;13.95;87.67;100509.06;4195985;28;20543;-71
2023/09/17 05:25:07;;;;;;;24.77;11.60;;;;;;;13.93;87.20;100502.91;4193822;28;21147;-67
2023/09/17 05:27:34;;;;;;;24.83;10.90;;;;;;;13.99;87.23;100504.97;4192725;28;20240;-67
2023/09/17 05:30:01;;;;;;;20.80;11.27;;;;;;;14.12;86.58;100503.63;4189512;28;20540;-69
2023/09/17 05:32:28;;;;;;;19.00;10.47;;;;;;;14.27;85.80;100500.06;4185571;28;20229;-69
2023/09/17 05:34:58;;;;;;;20.30;10.70;;;;;;;14.20;86.44;100512.66;4182373;28;20396;-69
2023/09/17 05:37:28;;;;;;;25.97;11.47;;;;;;;14.26;85.93;100513.84;4198813;28;20915;-68
2023/09/17 05:39:55;;;;;;;21.83;10.53;;;;;;;14.40;85.51;100515.00;4186411;28;20590;-70
2023/09/17 05:42:21;;;;;;;19.73;10.50;;;;;;;14.46;85.24;100521.66;4192146;28;21153;-70
2023/09/17 05:44:48;;;;;;;24.77;12.87;;;;;;;14.53;84.89;100520.81;4184712;28;20230;-68
2023/09/17 05:47:15;;;;;;;20.57;9.20;;;;;;;14.46;85.09;100517.09;4192688;28;20237;-70
2023/09/17 05:49:43;;;;;;;19.20;9.93;;;;;;;14.46;85.35;100516.22;4203466;28;20240;-68
2023/09/17 05:52:10;;;;;;;19.30;9.97;;;;;;;14.56;85.09;100522.34;4197676;28;20299;-69
2023/09/17 05:54:36;;;;;;;20.07;10.27;;;;;;;14.76;83.89;100519.28;4187745;28;21094;-67
2023/09/17 05:57:03;;;;;;;18.93;10.13;;;;;;;14.86;83.81;100517.22;4192672;28;20462;-67
2023/09/17 05:59:30;;;;;;;17.23;10.13;;;;;;;14.95;83.04;100521.63;4198314;28;20238;-69
2023/09/17 06:01:58;;;;;;;17.23;9.63;;;;;;;14.78;83.83;100517.25;4199959;28;20370;-69
2023/09/17 06:04:26;;;;;;;28.03;9.57;;;;;;;14.81;84.01;100516.88;4186932;28;20242;-67
2023/09/17 06:06:53;;;;;;;16.40;9.50;;;;;;;14.93;83.32;100515.50;4199632;28;20238;-68
2023/09/17 06:09:19;;;;;;;16.33;9.77;;;;;;;15.09;82.95;100516.47;4191429;28;22005;-69
2023/09/17 06:11:47;;;;;;;17.90;10.00;;;;;;;15.11;82.72;100509.81;4195335;28;20312;-67
2023/09/17 06:14:17;;;;;;;18.13;9.07;;;;;;;15.12;82.73;100510.66;4194924;28;21351;-69
2023/09/17 06:16:44;;;;;;;19.43;10.17;;;;;;;15.21;82.56;100510.47;4197872;28;20419;-70
2023/09/17 06:19:23;;;;;;;16.23;9.80;;;;;;;15.34;82.17;100511.78;4199180;28;21750;-69
2023/09/17 06:21:50;;;;;;;17.37;9.87;;;;;;;15.32;82.21;100509.25;4197605;28;21765;-69
2023/09/17 06:24:17;;;;;;;16.73;9.93;;;;;;;15.50;80.96;100509.00;4190695;28;20241;-67
2023/09/17 06:26:44;;;;;;;17.20;9.63;;;;;;;15.78;79.83;100516.69;4198457;28;20613;-70
2023/09/17 06:29:10;;;;;;;16.53;9.97;;;;;;;15.74;80.21;100509.03;4194626;28;21659;-67
2023/09/17 06:31:37;;;;;;;17.77;9.53;;;;;;;15.75;80.03;100506.09;4200162;28;20508;-70
2023/09/17 06:34:04;;;;;;;17.00;10.43;;;;;;;15.94;78.93;100517.63;4199819;28;20228;-67
2023/09/17 06:36:32;;;;;;;16.17;9.80;;;;;;;15.94;78.55;100517.63;4186723;28;20233;-67
2023/09/17 06:38:58;;;;;;;20.33;10.93;;;;;;;15.96;79.12;100515.59;4193613;28;20577;-67
2023/09/17 06:41:25;;;;;;;20.60;10.70;;;;;;;15.94;79.36;100523.09;4201907;28;20318;-70
2023/09/17 06:43:51;;;;;;;24.57;10.93;;;;;;;15.84;79.69;100518.72;4199893;28;20387;-69
2023/09/17 06:46:18;;;;;;;19.30;10.17;;;;;;;15.93;79.19;100514.06;4196027;28;20254;-69
2023/09/17 06:48:45;;;;;;;20.43;10.73;;;;;;;16.20;78.09;100522.75;4192850;28;25427;-71
2023/09/17 06:51:12;;;;;;;19.70;9.90;;;;;;;16.24;77.45;100521.34;4201293;28;20238;-68
2023/09/17 06:53:39;;;;;;;17.13;10.47;;;;;;;16.10;78.31;100517.53;4192251;28;20252;-69
2023/09/17 06:56:08;;;;;;;18.23;9.27;;;;;;;16.15;78.58;100511.53;4193704;28;20228;-71
2023/09/17 06:58:35;;;;;;;22.83;9.97;;;;;;;16.44;77.12;100515.38;4193384;28;20352;-70
2023/09/17 07:01:02;;;;;;;17.80;9.97;;;;;;;16.61;76.44;100516.94;4193723;28;20236;-69
2023/09/17 07:03:28;;;;;;;16.50;9.57;;;;;;;16.86;75.36;100519.41;4206169;28;20236;-67
2023/09/17 07:05:55;;;;;;;15.33;9.30;;;;;;;17.13;74.44;100517.13;4188362;28;20297;-70
2023/09/17 07:08:22;;;;;;;15.40;8.73;;;;;;;17.32;73.94;100509.34;4197656;28;20655;-67
2023/09/17 07:10:49;;;;;;;19.47;9.70;;;;;;;17.81;72.24;100505.09;4209092;28;20237;-67
2023/09/17 07:13:15;;;;;;;17.47;9.73;;;;;;;19.15;67.18;100504.41;4203973;28;21000;-68
2023/09/17 07:15:46;;;;;;;14.83;8.50;;;;;;;21.15;61.10;100510.47;4205286;28;20241;-70
2023/09/17 07:18:14;;;;;;;12.40;7.10;;;;;;;23.69;52.15;100503.25;4196706;28;21140;-69
2023/09/17 07:20:40;;;;;;;15.83;7.70;;;;;;;24.31;50.53;100503.00;4206454;28;25812;-70
2023/09/17 07:23:08;;;;;;;16.53;7.67;;;;;;;24.04;50.10;100505.34;4214996;28;20232;-71
2023/09/17 07:25:34;;;;;;;21.97;8.30;;;;;;;23.50;51.57;100500.50;4199738;28;20348;-68
2023/09/17 07:28:07;;;;;;;13.47;7.20;;;;;;;25.86;46.71;100512.06;4198122;28;20383;-68
2023/09/17 07:30:35;;;;;;;13.50;7.17;;;;;;;27.69;41.83;100509.94;4217351;28;20235;-70
2023/09/17 07:33:03;;;;;;;14.30;7.87;;;;;;;27.57;41.00;100506.47;4203011;28;20290;-72
2023/09/17 07:35:33;;;;;;;13.20;7.57;;;;;;;27.95;40.07;100504.69;4192774;28;20256;-73
2023/09/17 07:38:00;;;;;;;10.98;7.28;;;;;;;28.26;39.35;100511.41;4216024;28;22065;-70
2023/09/17 07:40:26;;;;;;;16.38;8.05;;;;;;;27.13;42.26;100505.34;4211019;28;20544;-71
2023/09/17 07:42:53;;;;;;;18.30;8.30;;;;;;;26.27;43.92;100500.91;4193903;28;20240;-69
2023/09/17 07:45:20;;;;;;;13.00;7.68;;;;;;;26.69;42.88;100500.50;4198341;28;20362;-70
2023/09/17 07:47:46;;;;;;;12.25;7.75;;;;;;;28.03;40.57;100503.34;4193184;28;20236;-67
2023/09/17 07:50:13;;;;;;;12.10;6.85;;;;;;;27.86;40.58;100497.91;4201570;28;21593;-69
2023/09/17 07:52:40;;;;;;;11.52;7.25;;;;;;;27.68;40.63;100502.72;4192880;28;22148;-70
2023/09/17 07:55:08;;;;;;;14.30;7.50;;;;;;;28.04;40.86;100499.47;4207669;28;20453;-69
2023/09/17 07:57:34;;;;;;;13.40;6.63;;;;;;;29.92;37.33;100506.88;4199877;28;20287;-74
2023/09/17 08:00:02;;;;;;;11.03;6.43;;;;;;;31.91;33.71;100501.25;4194840;28;21785;-67
2023/09/17 08:02:29;;;;;;;12.50;6.83;;;;;;;32.96;31.91;100504.94;4198742;28;20615;-69
2023/09/17 08:04:56;;;;;;;14.93;7.55;;;;;;;32.03;33.17;100500.88;4215217;28;20557;-69
2023/09/17 08:07:22;;;;;;;12.52;7.07;;;;;;;32.59;32.11;100503.59;4197538;28;21786;-68
2023/09/17 08:09:49;;;;;;;10.32;7.13;;;;;;;31.77;32.74;100503.84;4200450;28;20381;-70
2023/09/17 08:12:17;;;;;;;11.35;7.38;;;;;;;31.68;33.31;100497.19;4206769;28;22087;-67
2023/09/17 08:14:48;;;;;;;12.45;7.10;;;;;;;31.55;33.66;100501.41;4218072;28;21182;-69
2023/09/17 08:17:14;;;;;;;13.07;7.00;;;;;;;31.29;33.81;100495.09;4183516;28;20544;-70
2023/09/17 08:19:42;;;;;;;11.45;7.20;;;;;;;30.77;35.21;100488.78;4199588;28;20400;-70
2023/09/17 08:22:08;;;;;;;12.30;7.28;;;;;;;30.56;35.35;100496.34;4198649;28;20291;-72
2023/09/17 08:24:35;;;;;;;15.57;6.93;;;;;;;29.19;38.05;100492.59;4204562;28;20377;-75
2023/09/17 08:27:03;;;;;;;12.15;7.43;;;;;;;28.62;38.94;100497.81;4214510;28;21807;-71
2023/09/17 08:29:29;;;;;;;13.00;7.20;;;;;;;28.28;39.75;100503.63;4192703;28;20240;-68
2023/09/17 08:31:56;;;;;;;14.60;7.37;;;;;;;27.19;42.13;100518.19;4195910;28;20420;-68
2023/09/17 08:34:23;;;;;;;13.83;7.53;;;;;;;25.57;45.84;100513.97;4189560;28;20249;-69
2023/09/17 08:36:49;;;;;;;10.90;7.40;;;;;;;24.60;48.74;100499.56;4197859;28;20373;-72
2023/09/17 08:39:17;;;;;;;14.83;7.50;;;;;;;24.65;48.95;100500.53;4202606;28;21370;-69
2023/09/17 08:41:44;;;;;;;11.03;7.33;;;;;;;24.39;49.71;100498.22;4191842;28;20296;-68
2023/09/17 08:44:12;;;;;;;13.27;7.47;;;;;;;24.68;49.45;100502.00;4204568;28;20251;-70
2023/09/17 08:46:40;;;;;;;12.80;7.20;;;;;;;24.77;49.51;100500.59;4195739;28;21744;-68
2023/09/17 08:49:07;;;;;;;12.47;7.63;;;;;;;24.43;50.33;100494.72;4199737;28;20272;-70
2023/09/17 08:51:37;;;;;;;12.37;7.17;;;;;;;24.61;50.73;100495.72;4196391;28;20237;-70
2023/09/17 08:54:28;;;;;;;15.23;8.23;;;;;;;24.12;51.81;100488.41;4197264;28;21715;-69
2023/09/17 08:56:59;;;;;;;9.77;7.27;;;;;;;24.03;52.28;100493.44;4204469;28;22377;-69
2023/09/17 08:59:29;;;;;;;12.43;7.73;;;;;;;23.46;54.30;100498.44;4197274;28;22223;-68
2023/09/17 09:02:05;;;;;;;12.53;7.30;;;;;;;24.36;51.59;100499.53;4201013;28;23296;-68
2023/09/17 09:04:36;;;;;;;11.43;7.80;;;;;;;24.44;51.72;100487.25;4196165;28;22563;-68
2023/09/17 09:07:05;;;;;;;11.57;7.23;;;;;;;24.68;50.74;100486.22;4196708;28;20237;-70
2023/09/17 09:09:35;;;;;;;11.80;6.73;;;;;;;24.60;51.45;100478.25;4211335;28;20231;-70
2023/09/17 09:12:03;;;;;;;12.13;6.67;;;;;;;24.83;50.80;100479.38;4204662;28;20229;-68
2023/09/17 09:14:31;;;;;;;13.77;6.80;;;;;;;24.56;51.79;100484.50;4184634;28;24833;-72
2023/09/17 09:17:00;;;;;;;10.37;6.60;;;;;;;24.61;51.06;100491.00;4196490;28;20243;-69
2023/09/17 09:19:27;;;;;;;15.20;7.20;;;;;;;24.33;52.43;100489.78;4197016;28;21756;-69
2023/09/17 09:21:54;;;;;;;12.03;6.47;;;;;;;24.42;52.13;100490.28;4209195;28;20240;-69
2023/09/17 09:24:23;;;;;;;13.40;6.87;;;;;;;24.53;52.16;100492.22;4199985;28;20289;-67
2023/09/17 09:26:50;;;;;;;13.43;6.93;;;;;;;24.10;53.09;100492.50;4197237;28;20241;-68
2023/09/17 09:29:19;;;;;;;16.80;6.97;;;;;;;24.45;52.46;100484.28;4184183;28;20308;-66
2023/09/17 09:31:46;;;;;;;13.47;7.73;;;;;;;24.41;52.57;100482.22;4200234;28;20239;-68
2023/09/17 09:34:14;;;;;;;12.00;7.30;;;;;;;24.54;52.21;100490.28;4184431;28;20781;-68
2023/09/17 09:36:44;;;;;;;11.27;7.73;;;;;;;24.38;52.54;100483.53;4204365;28;21699;-68
2023/09/17 09:39:15;;;;;;;11.53;7.30;;;;;;;24.29;53.33;100483.03;4193006;28;21927;-68
2023/09/17 09:41:43;;;;;;;15.77;7.30;;;;;;;24.16;54.18;100489.66;4189585;28;22964;-69
2023/09/17 09:44:10;;;;;;;10.30;6.93;;;;;;;24.34;53.19;100485.09;4192211;28;20244;-65
2023/09/17 09:46:37;;;;;;;14.83;7.40;;;;;;;24.45;52.92;100488.94;4193133;28;20384;-71
2023/09/17 09:49:04;;;;;;;13.10;6.77;;;;;;;23.94;54.75;100497.63;4183578;28;20233;-71
2023/09/17 09:51:31;;;;;;;14.40;7.43;;;;;;;24.12;54.09;100482.06;4194508;28;20631;-68
2023/09/17 09:53:58;;;;;;;16.73;7.17;;;;;;;24.07;54.51;100485.53;4195718;28;20249;-70
2023/09/17 09:56:28;;;;;;;16.00;7.50;;;;;;;24.25;53.87;100498.44;4174816;28;20541;-70
2023/09/17 09:58:56;;;;;;;11.63;6.93;;;;;;;24.28;53.98;100486.03;4196196;28;21433;-69
2023/09/17 10:01:23;;;;;;;10.67;6.67;;;;;;;23.96;54.55;100498.22;4175109;28;20296;-70
2023/09/17 10:03:50;;;;;;;14.07;7.57;;;;;;;23.93;54.84;100493.16;4186717;28;20235;-70
2023/09/17 10:06:18;;;;;;;12.63;6.97;;;;;;;23.73;56.34;100487.88;4200841;28;21848;-68
2023/09/17 10:08:46;;;;;;;12.40;6.50;;;;;;;23.98;55.43;100481.41;4200256;28;20245;-71
2023/09/17 10:11:14;;;;;;;11.57;6.47;;;;;;;24.12;54.62;100476.53;4195580;28;20240;-68
2023/09/17 10:13:42;;;;;;;14.03;6.90;;;;;;;23.80;55.76;100483.09;4198560;28;20427;-70
2023/09/17 10:16:09;;;;;;;11.45;7.18;;;;;;;23.87;56.29;100483.84;4196309;28;20348;-70
2023/09/17 10:18:38;;;;;;;15.37;6.53;;;;;;;23.89;56.02;100469.81;4198216;28;20248;-68
2023/09/17 10:21:05;;;;;;;12.13;6.40;;;;;;;23.86;56.48;100481.31;4186103;28;20254;-69
2023/09/17 10:23:33;;;;;;;18.10;7.33;;;;;;;23.96;56.84;100481.66;4185174;28;21358;-67
2023/09/17 10:26:02;;;;;;;13.67;6.87;;;;;;;24.17;56.25;100479.41;4197185;28;21030;-72
2023/09/17 10:28:31;;;;;;;11.83;6.70;;;;;;;24.48;54.33;100480.19;4201883;28;20518;-70
2023/09/17 10:31:00;;;;;;;12.57;6.70;;;;;;;24.70;53.96;100477.69;4193856;28;20233;-69
2023/09/17 10:33:31;;;;;;;12.83;6.97;;;;;;;24.43;54.29;100480.91;4188489;28;21495;-68
2023/09/17 10:35:59;;;;;;;11.80;6.70;;;;;;;24.15;56.00;100479.66;4184850;28;21326;-70
2023/09/17 10:38:27;;;;;;;10.27;6.20;;;;;;;24.42;54.76;100483.91;4194947;28;20227;-68
2023/09/17 10:40:56;;;;;;;10.67;6.63;;;;;;;24.58;54.29;100488.75;4212826;28;20265;-69
2023/09/17 10:43:24;;;;;;;11.23;6.30;;;;;;;24.69;54.03;100478.78;4186645;28;20273;-69
2023/09/17 10:45:54;;;;;;;12.27;6.23;;;;;;;24.64;53.92;100473.94;4211237;28;20305;-69
2023/09/17 10:48:24;;;;;;;9.00;5.63;;;;;;;24.64;53.59;100484.16;4213064;28;20272;-70
2023/09/17 10:50:52;;;;;;;10.40;6.47;;;;;;;24.74;53.94;100475.28;4195631;28;20389;-70
2023/09/17 10:53:18;;;;;;;9.20;6.03;;;;;;;24.68;54.07;100474.34;4225004;28;20242;-70
2023/09/17 10:55:53;;;;;;;11.37;5.97;;;;;;;24.81;54.13;100482.38;4179393;28;20288;-69
2023/09/17 10:58:26;;;;;;;9.37;5.80;;;;;;;24.88;52.99;100475.88;4211831;28;20324;-68
2023/09/17 11:00:54;;;;;;;9.20;5.27;;;;;;;24.68;54.03;100474.34;4209074;28;20510;-68
2023/09/17 11:03:23;;;;;;;12.23;6.30;;;;;;;24.47;54.74;100476.56;4188468;28;22673;-68
2023/09/17 11:05:54;;;;;;;8.73;5.60;;;;;;;24.68;54.64;100479.88;4191982;28;20680;-68
2023/09/17 11:08:21;;;;;;;8.60;5.60;;;;;;;24.79;54.16;100470.72;4218197;28;20306;-71
2023/09/17 11:10:48;;;;;;;9.47;5.40;;;;;;;25.25;52.43;100483.91;4201253;28;20266;-68
2023/09/17 11:13:15;;;;;;;10.82;5.75;;;;;;;25.39;51.97;100478.97;4170379;28;20707;-68
2023/09/17 11:15:43;;;;;;;10.50;6.33;;;;;;;24.97;53.40;100475.25;4184982;28;23456;-69
2023/09/17 11:18:11;;;;;;;9.07;5.57;;;;;;;25.05;53.56;100479.59;4200973;28;20323;-69
2023/09/17 11:21:00;;;;;;;10.60;6.10;;;;;;;24.75;54.14;100479.72;4192452;28;20243;-69